sensor_id;sensor_type;location;lat;lon;timestamp;pressure;altitude;pressure_sealevel;temperature;humidity
66524;BME280;53350;52.210;5.160;2023-02-19T00:01:35;101776.75;;;12.10;81.75
66524;BME280;53350;52.210;5.160;2023-02-19T00:04:03;101763.84;;;12.00;81.94
66524;BME280;53350;52.210;5.160;2023-02-19T00:06:33;101773.31;;;12.03;82.21
66524;BME280;53350;52.210;5.160;2023-02-19T00:09:00;101779.34;;;11.97;82.44
66524;BME280;53350;52.210;5.160;2023-02-19T00:11:29;101784.53;;;11.94;82.54
66524;BME280;53350;52.210;5.160;2023-02-19T00:13:57;101778.50;;;11.97;82.56
66524;BME280;53350;52.210;5.160;2023-02-19T00:16:25;101791.41;;;11.97;82.76
66524;BME280;53350;52.210;5.160;2023-02-19T00:18:53;101792.25;;;12.00;82.41
66524;BME280;53350;52.210;5.160;2023-02-19T00:21:20;101794.00;;;11.98;82.41
66524;BME280;53350;52.210;5.160;2023-02-19T00:23:49;101790.56;;;11.99;82.54
66524;BME280;53350;52.210;5.160;2023-02-19T00:26:16;101793.97;;;12.03;82.16
66524;BME280;53350;52.210;5.160;2023-02-19T00:28:43;101793.13;;;12.01;82.38
66524;BME280;53350;52.210;5.160;2023-02-19T00:31:15;101791.41;;;12.00;82.63
66524;BME280;53350;52.210;5.160;2023-02-19T00:33:43;101786.22;;;12.02;82.49
66524;BME280;53350;52.210;5.160;2023-02-19T00:36:09;101793.97;;;12.03;82.50
66524;BME280;53350;52.210;5.160;2023-02-19T00:38:37;101790.53;;;12.06;82.29
66524;BME280;53350;52.210;5.160;2023-02-19T00:41:06;101793.09;;;12.09;81.99
66524;BME280;53350;52.210;5.160;2023-02-19T00:43:45;101796.53;;;12.05;82.20
66524;BME280;53350;52.210;5.160;2023-02-19T00:46:12;101800.84;;;12.09;82.03
66524;BME280;53350;52.210;5.160;2023-02-19T00:48:38;101796.53;;;12.06;81.99
66524;BME280;53350;52.210;5.160;2023-02-19T00:51:04;101797.44;;;12.02;82.38
66524;BME280;53350;52.210;5.160;2023-02-19T00:53:31;101791.38;;;12.06;82.01
66524;BME280;53350;52.210;5.160;2023-02-19T00:55:57;101804.28;;;12.05;82.09
66524;BME280;53350;52.210;5.160;2023-02-19T00:58:25;101804.28;;;12.08;81.66
66524;BME280;53350;52.210;5.160;2023-02-19T01:00:52;101809.44;;;12.08;81.29
66524;BME280;53350;52.210;5.160;2023-02-19T01:03:19;101815.50;;;12.05;81.21
66524;BME280;53350;52.210;5.160;2023-02-19T01:05:46;101818.09;;;12.04;81.38
66524;BME280;53350;52.210;5.160;2023-02-19T01:08:13;101819.78;;;12.03;81.19
66524;BME280;53350;52.210;5.160;2023-02-19T01:10:39;101811.19;;;12.01;81.35
66524;BME280;53350;52.210;5.160;2023-02-19T01:13:06;101813.78;;;12.03;81.29
66524;BME280;53350;52.210;5.160;2023-02-19T01:15:34;101819.78;;;12.06;80.93
66524;BME280;53350;52.210;5.160;2023-02-19T01:18:00;101816.38;;;12.01;81.12
66524;BME280;53350;52.210;5.160;2023-02-19T01:20:27;101815.50;;;12.00;81.13
66524;BME280;53350;52.210;5.160;2023-02-19T01:22:53;101811.22;;;11.99;81.04
66524;BME280;53350;52.210;5.160;2023-02-19T01:25:20;101815.50;;;12.02;81.04
66524;BME280;53350;52.210;5.160;2023-02-19T01:27:46;101819.78;;;12.02;80.97
66524;BME280;53350;52.210;5.160;2023-02-19T01:30:13;101820.66;;;12.00;80.98
66524;BME280;53350;52.210;5.160;2023-02-19T01:32:41;101822.38;;;12.03;80.90
66524;BME280;53350;52.210;5.160;2023-02-19T01:35:07;101820.66;;;12.00;80.99
66524;BME280;53350;52.210;5.160;2023-02-19T01:37:33;101827.53;;;12.02;80.67
66524;BME280;53350;52.210;5.160;2023-02-19T01:40:00;101828.41;;;11.99;81.06
66524;BME280;53350;52.210;5.160;2023-02-19T01:42:26;101821.53;;;11.98;80.69
66524;BME280;53350;52.210;5.160;2023-02-19T01:45:24;101825.81;;;11.90;81.15
66524;BME280;53350;52.210;5.160;2023-02-19T01:47:58;101824.09;;;11.90;81.41
66524;BME280;53350;52.210;5.160;2023-02-19T01:50:29;101835.31;;;11.89;81.38
66524;BME280;53350;52.210;5.160;2023-02-19T01:52:58;101829.25;;;11.89;81.47
66524;BME280;53350;52.210;5.160;2023-02-19T01:55:30;101824.97;;;11.89;81.28
66524;BME280;53350;52.210;5.160;2023-02-19T01:57:57;101831.84;;;11.86;81.21
66524;BME280;53350;52.210;5.160;2023-02-19T02:00:24;101834.44;;;11.84;81.40
66524;BME280;53350;52.210;5.160;2023-02-19T02:02:52;101824.97;;;11.78;81.36
66524;BME280;53350;52.210;5.160;2023-02-19T02:05:31;101818.09;;;11.76;81.90
66524;BME280;53350;52.210;5.160;2023-02-19T02:08:02;101832.72;;;11.81;81.58
66524;BME280;53350;52.210;5.160;2023-02-19T02:10:46;101840.44;;;11.81;81.77
66524;BME280;53350;52.210;5.160;2023-02-19T02:13:13;101838.75;;;11.79;81.78
66524;BME280;53350;52.210;5.160;2023-02-19T02:15:47;101843.03;;;11.80;81.88
66524;BME280;53350;52.210;5.160;2023-02-19T02:18:23;101839.59;;;11.79;81.67
66524;BME280;53350;52.210;5.160;2023-02-19T02:21:10;101837.88;;;11.80;81.71
66524;BME280;53350;52.210;5.160;2023-02-19T02:23:55;101839.59;;;11.84;81.72
66524;BME280;53350;52.210;5.160;2023-02-19T02:26:45;101837.88;;;11.88;81.05
66524;BME280;53350;52.210;5.160;2023-02-19T02:29:35;101845.63;;;11.86;80.91
66524;BME280;53350;52.210;5.160;2023-02-19T02:32:09;101853.38;;;11.88;80.85
66524;BME280;53350;52.210;5.160;2023-02-19T02:34:40;101848.22;;;11.89;80.64
66524;BME280;53350;52.210;5.160;2023-02-19T02:37:12;101853.38;;;11.91;80.34
66524;BME280;53350;52.210;5.160;2023-02-19T02:39:40;101844.75;;;11.93;80.17
66524;BME280;53350;52.210;5.160;2023-02-19T02:42:07;101851.66;;;11.88;80.34
66524;BME280;53350;52.210;5.160;2023-02-19T02:44:51;101848.22;;;11.89;79.94
66524;BME280;53350;52.210;5.160;2023-02-19T02:47:36;101849.06;;;11.88;79.89
66524;BME280;53350;52.210;5.160;2023-02-19T02:50:12;101858.53;;;11.88;79.75
66524;BME280;53350;52.210;5.160;2023-02-19T02:52:42;101862.81;;;11.87;80.11
66524;BME280;53350;52.210;5.160;2023-02-19T02:55:30;101851.66;;;11.87;80.16
66524;BME280;53350;52.210;5.160;2023-02-19T02:57:59;101843.91;;;11.88;80.06
66524;BME280;53350;52.210;5.160;2023-02-19T03:00:26;101851.66;;;11.85;80.21
66524;BME280;53350;52.210;5.160;2023-02-19T03:03:17;101853.34;;;11.84;80.16
66524;BME280;53350;52.210;5.160;2023-02-19T03:05:48;101860.25;;;11.86;79.97
66524;BME280;53350;52.210;5.160;2023-02-19T03:08:22;101855.94;;;11.80;80.34
66524;BME280;53350;52.210;5.160;2023-02-19T03:10:53;101855.09;;;11.75;80.46
66524;BME280;53350;52.210;5.160;2023-02-19T03:13:25;101866.28;;;11.80;80.41
66524;BME280;53350;52.210;5.160;2023-02-19T03:16:15;101868.88;;;11.72;80.48
66524;BME280;53350;52.210;5.160;2023-02-19T03:19:04;101871.44;;;11.80;79.90
66524;BME280;53350;52.210;5.160;2023-02-19T03:21:49;101868.84;;;11.80;79.89
66524;BME280;53350;52.210;5.160;2023-02-19T03:24:17;101877.47;;;11.66;80.41
66524;BME280;53350;52.210;5.160;2023-02-19T03:27:04;101868.00;;;11.70;80.17
66524;BME280;53350;52.210;5.160;2023-02-19T03:29:31;101889.53;;;11.66;79.93
66524;BME280;53350;52.210;5.160;2023-02-19T03:32:02;101877.47;;;11.65;79.53
66524;BME280;53350;52.210;5.160;2023-02-19T03:34:34;101880.06;;;11.63;80.18
66524;BME280;53350;52.210;5.160;2023-02-19T03:37:07;101879.22;;;11.63;80.25
66524;BME280;53350;52.210;5.160;2023-02-19T03:39:35;101886.91;;;11.60;80.66
66524;BME280;53350;52.210;5.160;2023-02-19T03:42:14;101882.63;;;11.46;81.09
66524;BME280;53350;52.210;5.160;2023-02-19T03:44:46;101881.78;;;11.47;80.94
66524;BME280;53350;52.210;5.160;2023-02-19T03:47:21;101898.09;;;11.53;81.00
66524;BME280;53350;52.210;5.160;2023-02-19T03:49:54;101899.84;;;11.51;80.96
66524;BME280;53350;52.210;5.160;2023-02-19T03:52:32;101895.53;;;11.49;80.90
66524;BME280;53350;52.210;5.160;2023-02-19T03:55:05;101901.53;;;11.45;81.28
66524;BME280;53350;52.210;5.160;2023-02-19T03:57:41;101905.84;;;11.46;81.04
66524;BME280;53350;52.210;5.160;2023-02-19T04:00:15;101914.44;;;11.44;81.10
66524;BME280;53350;52.210;5.160;2023-02-19T04:02:46;101913.59;;;11.45;81.08
66524;BME280;53350;52.210;5.160;2023-02-19T04:05:18;101908.41;;;11.40;80.66
66524;BME280;53350;52.210;5.160;2023-02-19T04:07:49;101917.00;;;11.45;80.74
66524;BME280;53350;52.210;5.160;2023-02-19T04:10:19;101923.91;;;11.46;80.75
66524;BME280;53350;52.210;5.160;2023-02-19T04:12:49;101919.59;;;11.47;80.56
66524;BME280;53350;52.210;5.160;2023-02-19T04:15:20;101922.16;;;11.41;80.78
66524;BME280;53350;52.210;5.160;2023-02-19T04:17:53;101925.63;;;11.44;80.74
66524;BME280;53350;52.210;5.160;2023-02-19T04:20:23;101930.78;;;11.47;80.75
66524;BME280;53350;52.210;5.160;2023-02-19T04:22:50;101933.38;;;11.46;80.43
66524;BME280;53350;52.210;5.160;2023-02-19T04:25:17;101941.97;;;11.43;80.63
66524;BME280;53350;52.210;5.160;2023-02-19T04:27:44;101941.09;;;11.41;80.78
66524;BME280;53350;52.210;5.160;2023-02-19T04:30:12;101947.13;;;11.45;80.72
66524;BME280;53350;52.210;5.160;2023-02-19T04:32:39;101952.28;;;11.45;80.76
66524;BME280;53350;52.210;5.160;2023-02-19T04:35:05;101956.59;;;11.54;80.10
66524;BME280;53350;52.210;5.160;2023-02-19T04:37:33;101953.16;;;11.53;80.19
66524;BME280;53350;52.210;5.160;2023-02-19T04:39:59;101961.75;;;11.52;80.21
66524;BME280;53350;52.210;5.160;2023-02-19T04:42:26;101962.59;;;11.49;80.15
66524;BME280;53350;52.210;5.160;2023-02-19T04:44:52;101969.50;;;11.52;79.85
66524;BME280;53350;52.210;5.160;2023-02-19T04:47:19;101979.81;;;11.52;79.78
66524;BME280;53350;52.210;5.160;2023-02-19T04:49:45;101972.94;;;11.51;79.72
66524;BME280;53350;52.210;5.160;2023-02-19T04:52:12;101982.41;;;11.51;79.83
66524;BME280;53350;52.210;5.160;2023-02-19T04:54:39;101987.56;;;11.49;79.50
66524;BME280;53350;52.210;5.160;2023-02-19T04:57:06;101996.16;;;11.53;79.37
66524;BME280;53350;52.210;5.160;2023-02-19T04:59:32;101994.44;;;11.50;79.42
66524;BME280;53350;52.210;5.160;2023-02-19T05:01:59;101999.59;;;11.48;79.51
66524;BME280;53350;52.210;5.160;2023-02-19T05:04:25;102005.59;;;11.44;79.87
66524;BME280;53350;52.210;5.160;2023-02-19T05:06:52;102003.03;;;11.47;79.39
66524;BME280;53350;52.210;5.160;2023-02-19T05:09:18;102012.50;;;11.50;79.50
66524;BME280;53350;52.210;5.160;2023-02-19T05:11:46;102010.78;;;11.44;79.55
66524;BME280;53350;52.210;5.160;2023-02-19T05:14:12;102012.47;;;11.45;79.71
66524;BME280;53350;52.210;5.160;2023-02-19T05:16:39;102021.94;;;11.43;79.72
66524;BME280;53350;52.210;5.160;2023-02-19T05:19:05;102017.66;;;11.50;79.31
66524;BME280;53350;52.210;5.160;2023-02-19T05:21:32;102018.53;;;11.51;79.23
66524;BME280;53350;52.210;5.160;2023-02-19T05:23:58;102027.13;;;11.54;79.05
66524;BME280;53350;52.210;5.160;2023-02-19T05:26:24;102034.00;;;11.55;78.63
66524;BME280;53350;52.210;5.160;2023-02-19T05:28:52;102031.44;;;11.57;78.34
66524;BME280;53350;52.210;5.160;2023-02-19T05:31:19;102021.94;;;11.54;78.35
66524;BME280;53350;52.210;5.160;2023-02-19T05:33:46;102028.84;;;11.57;77.61
66524;BME280;53350;52.210;5.160;2023-02-19T05:36:16;102039.16;;;11.49;78.29
66524;BME280;53350;52.210;5.160;2023-02-19T05:38:42;102033.13;;;11.47;78.39
66524;BME280;53350;52.210;5.160;2023-02-19T05:41:10;102034.84;;;11.45;78.36
66524;BME280;53350;52.210;5.160;2023-02-19T05:43:37;102026.25;;;11.43;77.98
66524;BME280;53350;52.210;5.160;2023-02-19T05:46:06;102031.41;;;11.41;77.92
66524;BME280;53350;52.210;5.160;2023-02-19T05:48:33;102033.97;;;11.41;78.36
66524;BME280;53350;52.210;5.160;2023-02-19T05:51:00;102032.25;;;11.40;78.10
66524;BME280;53350;52.210;5.160;2023-02-19T05:53:27;102035.69;;;11.38;78.31
66524;BME280;53350;52.210;5.160;2023-02-19T05:55:54;102036.56;;;11.43;78.04
66524;BME280;53350;52.210;5.160;2023-02-19T05:58:20;102045.13;;;11.37;78.09
66524;BME280;53350;52.210;5.160;2023-02-19T06:00:47;102044.31;;;11.43;77.90
66524;BME280;53350;52.210;5.160;2023-02-19T06:03:14;102051.16;;;11.39;78.21
66524;BME280;53350;52.210;5.160;2023-02-19T06:05:41;102052.91;;;11.43;77.93
66524;BME280;53350;52.210;5.160;2023-02-19T06:08:08;102058.03;;;11.39;78.13
66524;BME280;53350;52.210;5.160;2023-02-19T06:10:36;102063.19;;;11.37;78.77
66524;BME280;53350;52.210;5.160;2023-02-19T06:13:05;102067.53;;;11.41;78.87
66524;BME280;53350;52.210;5.160;2023-02-19T06:15:32;102068.34;;;11.37;79.05
66524;BME280;53350;52.210;5.160;2023-02-19T06:17:59;102073.53;;;11.37;79.27
66524;BME280;53350;52.210;5.160;2023-02-19T06:20:27;102081.25;;;11.34;79.07
66524;BME280;53350;52.210;5.160;2023-02-19T06:22:53;102090.69;;;11.34;79.17
66524;BME280;53350;52.210;5.160;2023-02-19T06:25:20;102092.41;;;11.28;79.76
66524;BME280;53350;52.210;5.160;2023-02-19T06:27:46;102094.06;;;11.22;80.01
66524;BME280;53350;52.210;5.160;2023-02-19T06:30:13;102094.06;;;11.20;80.34
66524;BME280;53350;52.210;5.160;2023-02-19T06:32:39;102100.94;;;11.20;80.53
66524;BME280;53350;52.210;5.160;2023-02-19T06:35:06;102098.38;;;11.20;80.50
66524;BME280;53350;52.210;5.160;2023-02-19T06:37:34;102098.38;;;11.18;80.19
66524;BME280;53350;52.210;5.160;2023-02-19T06:40:00;102100.94;;;11.17;80.57
66524;BME280;53350;52.210;5.160;2023-02-19T06:42:30;102112.13;;;11.19;80.63
66524;BME280;53350;52.210;5.160;2023-02-19T06:44:56;102108.69;;;11.20;80.42
66524;BME280;53350;52.210;5.160;2023-02-19T06:47:24;102119.84;;;11.20;80.50
66524;BME280;53350;52.210;5.160;2023-02-19T06:49:50;102116.44;;;11.23;80.39
66524;BME280;53350;52.210;5.160;2023-02-19T06:52:16;102128.47;;;11.24;80.22
66524;BME280;53350;52.210;5.160;2023-02-19T06:54:44;102127.59;;;11.23;80.05
66524;BME280;53350;52.210;5.160;2023-02-19T06:57:10;102128.44;;;11.22;80.06
66524;BME280;53350;52.210;5.160;2023-02-19T06:59:37;102128.44;;;11.21;80.23
66524;BME280;53350;52.210;5.160;2023-02-19T07:02:03;102130.19;;;11.23;79.99
66524;BME280;53350;52.210;5.160;2023-02-19T07:04:30;102141.34;;;11.24;79.82
66524;BME280;53350;52.210;5.160;2023-02-19T07:06:56;102144.81;;;11.21;79.94
66524;BME280;53350;52.210;5.160;2023-02-19T07:09:24;102151.66;;;11.19;79.81
66524;BME280;53350;52.210;5.160;2023-02-19T07:11:53;102159.38;;;11.16;79.89
66524;BME280;53350;52.210;5.160;2023-02-19T07:14:20;102151.63;;;11.14;79.83
66524;BME280;53350;52.210;5.160;2023-02-19T07:16:47;102161.94;;;11.11;80.37
66524;BME280;53350;52.210;5.160;2023-02-19T07:19:14;102167.09;;;11.11;80.15
66524;BME280;53350;52.210;5.160;2023-02-19T07:21:40;102164.53;;;11.14;80.17
66524;BME280;53350;52.210;5.160;2023-02-19T07:24:08;102171.41;;;11.12;80.00
66524;BME280;53350;52.210;5.160;2023-02-19T07:26:35;102174.84;;;11.14;80.16
66524;BME280;53350;52.210;5.160;2023-02-19T07:29:03;102171.44;;;11.19;80.04
66524;BME280;53350;52.210;5.160;2023-02-19T07:31:29;102180.91;;;11.20;79.80
66524;BME280;53350;52.210;5.160;2023-02-19T07:33:56;102184.34;;;11.20;79.80
66524;BME280;53350;52.210;5.160;2023-02-19T07:36:23;102188.63;;;11.20;79.90
66524;BME280;53350;52.210;5.160;2023-02-19T07:38:52;102186.06;;;11.23;79.92
66524;BME280;53350;52.210;5.160;2023-02-19T07:41:20;102192.09;;;11.25;79.64
66524;BME280;53350;52.210;5.160;2023-02-19T07:43:46;102192.97;;;11.25;79.52
66524;BME280;53350;52.210;5.160;2023-02-19T07:46:14;102197.28;;;11.28;79.60
66524;BME280;53350;52.210;5.160;2023-02-19T07:48:41;102191.28;;;11.30;79.74
66524;BME280;53350;52.210;5.160;2023-02-19T07:51:11;102201.59;;;11.32;79.50
66524;BME280;53350;52.210;5.160;2023-02-19T07:53:38;102206.78;;;11.35;79.46
66524;BME280;53350;52.210;5.160;2023-02-19T07:56:06;102214.50;;;11.35;79.36
66524;BME280;53350;52.210;5.160;2023-02-19T07:58:33;102217.97;;;11.34;79.31
66524;BME280;53350;52.210;5.160;2023-02-19T08:01:06;102217.09;;;11.34;79.19
66524;BME280;53350;52.210;5.160;2023-02-19T08:03:34;102220.53;;;11.33;79.50
66524;BME280;53350;52.210;5.160;2023-02-19T08:05:59;102224.78;;;11.27;79.55
66524;BME280;53350;52.210;5.160;2023-02-19T08:08:26;102224.78;;;11.24;80.10
66524;BME280;53350;52.210;5.160;2023-02-19T08:10:52;102230.75;;;11.22;80.25
66524;BME280;53350;52.210;5.160;2023-02-19T08:13:36;102234.19;;;11.22;80.32
66524;BME280;53350;52.210;5.160;2023-02-19T08:16:11;102241.94;;;11.21;80.34
66524;BME280;53350;52.210;5.160;2023-02-19T08:18:41;102245.38;;;11.18;80.46
66524;BME280;53350;52.210;5.160;2023-02-19T08:21:07;102247.94;;;11.18;80.70
66524;BME280;53350;52.210;5.160;2023-02-19T08:23:34;102252.25;;;11.21;80.79
66524;BME280;53350;52.210;5.160;2023-02-19T08:26:01;102256.56;;;11.22;80.46
66524;BME280;53350;52.210;5.160;2023-02-19T08:28:27;102259.97;;;11.18;80.46
66524;BME280;53350;52.210;5.160;2023-02-19T08:30:58;102266.84;;;11.17;80.54
66524;BME280;53350;52.210;5.160;2023-02-19T08:33:25;102276.31;;;11.18;80.68
66524;BME280;53350;52.210;5.160;2023-02-19T08:35:52;102284.91;;;11.19;80.45
66524;BME280;53350;52.210;5.160;2023-02-19T08:38:19;102279.75;;;11.17;80.58
66524;BME280;53350;52.210;5.160;2023-02-19T08:40:45;102274.56;;;11.14;80.89
66524;BME280;53350;52.210;5.160;2023-02-19T08:43:14;102285.75;;;11.16;80.77
66524;BME280;53350;52.210;5.160;2023-02-19T08:45:42;102290.91;;;11.18;80.66
66524;BME280;53350;52.210;5.160;2023-02-19T08:48:09;102278.03;;;11.21;80.65
66524;BME280;53350;52.210;5.160;2023-02-19T08:50:37;102280.63;;;11.21;80.47
66524;BME280;53350;52.210;5.160;2023-02-19T08:53:05;102269.47;;;11.22;80.53
66524;BME280;53350;52.210;5.160;2023-02-19T08:55:32;102281.53;;;11.24;80.66
66524;BME280;53350;52.210;5.160;2023-02-19T08:57:58;102283.28;;;11.28;80.78
66524;BME280;53350;52.210;5.160;2023-02-19T09:00:25;102281.53;;;11.26;80.77
66524;BME280;53350;52.210;5.160;2023-02-19T09:02:52;102278.13;;;11.30;80.82
66524;BME280;53350;52.210;5.160;2023-02-19T09:05:18;102280.69;;;11.28;80.97
66524;BME280;53350;52.210;5.160;2023-02-19T09:07:45;102279.84;;;11.31;80.75
66524;BME280;53350;52.210;5.160;2023-02-19T09:10:13;102287.56;;;11.31;80.91
66524;BME280;53350;52.210;5.160;2023-02-19T09:12:39;102290.22;;;11.36;80.72
66524;BME280;53350;52.210;5.160;2023-02-19T09:15:07;102304.78;;;11.34;80.83
66524;BME280;53350;52.210;5.160;2023-02-19T09:17:34;102297.94;;;11.34;80.86
66524;BME280;53350;52.210;5.160;2023-02-19T09:20:00;102298.81;;;11.39;80.93
66524;BME280;53350;52.210;5.160;2023-02-19T09:22:26;102308.31;;;11.40;80.86
66524;BME280;53350;52.210;5.160;2023-02-19T09:24:53;102307.44;;;11.40;81.05
66524;BME280;53350;52.210;5.160;2023-02-19T09:27:21;102323.75;;;11.36;81.19
66524;BME280;53350;52.210;5.160;2023-02-19T09:29:47;102335.84;;;11.41;80.94
66524;BME280;53350;52.210;5.160;2023-02-19T09:32:13;102343.56;;;11.40;81.13
66524;BME280;53350;52.210;5.160;2023-02-19T09:34:40;102354.75;;;11.42;80.93
66524;BME280;53350;52.210;5.160;2023-02-19T09:37:07;102365.94;;;11.42;80.84
66524;BME280;53350;52.210;5.160;2023-02-19T09:39:34;102358.19;;;11.42;80.79
66524;BME280;53350;52.210;5.160;2023-02-19T09:42:03;102360.78;;;11.44;80.60
66524;BME280;53350;52.210;5.160;2023-02-19T09:44:38;102372.78;;;11.39;80.65
66524;BME280;53350;52.210;5.160;2023-02-19T09:47:08;102368.50;;;11.39;80.95
66524;BME280;53350;52.210;5.160;2023-02-19T09:49:39;102357.28;;;11.36;80.71
66524;BME280;53350;52.210;5.160;2023-02-19T09:52:13;102384.88;;;11.43;80.62
66524;BME280;53350;52.210;5.160;2023-02-19T09:54:41;102381.41;;;11.42;80.33
66524;BME280;53350;52.210;5.160;2023-02-19T09:57:12;102388.28;;;11.42;80.63
66524;BME280;53350;52.210;5.160;2023-02-19T09:59:44;102395.16;;;11.40;80.51
66524;BME280;53350;52.210;5.160;2023-02-19T10:02:13;102403.75;;;11.39;80.73
66524;BME280;53350;52.210;5.160;2023-02-19T10:04:42;102405.41;;;11.35;80.25
66524;BME280;53350;52.210;5.160;2023-02-19T10:07:11;102421.59;;;11.19;79.51
66524;BME280;53350;52.210;5.160;2023-02-19T10:09:37;102420.59;;;11.06;79.43
66524;BME280;53350;52.210;5.160;2023-02-19T10:12:12;102423.09;;;10.98;80.19
66524;BME280;53350;52.210;5.160;2023-02-19T10:14:44;102426.53;;;10.97;79.99
66524;BME280;53350;52.210;5.160;2023-02-19T10:17:18;102445.41;;;10.98;79.42
66524;BME280;53350;52.210;5.160;2023-02-19T10:19:46;102446.22;;;10.92;79.05
66524;BME280;53350;52.210;5.160;2023-02-19T10:22:12;102449.59;;;10.86;79.17
66524;BME280;53350;52.210;5.160;2023-02-19T10:24:39;102450.44;;;10.84;79.22
66524;BME280;53350;52.210;5.160;2023-02-19T10:27:11;102452.13;;;10.85;79.23
66524;BME280;53350;52.210;5.160;2023-02-19T10:29:38;102461.59;;;10.84;79.31
66524;BME280;53350;52.210;5.160;2023-02-19T10:32:17;102480.47;;;10.82;79.02
66524;BME280;53350;52.210;5.160;2023-02-19T10:34:47;102484.75;;;10.81;78.91
66524;BME280;53350;52.210;5.160;2023-02-19T10:37:15;102476.97;;;10.76;78.88
66524;BME280;53350;52.210;5.160;2023-02-19T10:39:44;102478.66;;;10.76;78.85
66524;BME280;53350;52.210;5.160;2023-02-19T10:42:17;102482.09;;;10.75;78.83
66524;BME280;53350;52.210;5.160;2023-02-19T10:44:46;102482.13;;;10.76;78.65
66524;BME280;53350;52.210;5.160;2023-02-19T10:47:18;102481.22;;;10.74;78.61
66524;BME280;53350;52.210;5.160;2023-02-19T10:49:45;102483.78;;;10.74;78.55
66524;BME280;53350;52.210;5.160;2023-02-19T10:52:15;102477.78;;;10.72;78.18
66524;BME280;53350;52.210;5.160;2023-02-19T10:54:44;102474.38;;;10.75;78.17
66524;BME280;53350;52.210;5.160;2023-02-19T10:57:24;102469.22;;;10.75;78.24
66524;BME280;53350;52.210;5.160;2023-02-19T10:59:55;102464.94;;;10.77;77.87
66524;BME280;53350;52.210;5.160;2023-02-19T11:02:24;102464.09;;;10.76;77.88
66524;BME280;53350;52.210;5.160;2023-02-19T11:05:04;102467.53;;;10.78;77.92
66524;BME280;53350;52.210;5.160;2023-02-19T11:07:31;102466.72;;;10.81;77.93
66524;BME280;53350;52.210;5.160;2023-02-19T11:09:58;102476.16;;;10.79;77.44
66524;BME280;53350;52.210;5.160;2023-02-19T11:12:27;102482.09;;;10.75;77.34
66524;BME280;53350;52.210;5.160;2023-02-19T11:14:54;102485.50;;;10.72;77.42
66524;BME280;53350;52.210;5.160;2023-02-19T11:17:24;102483.72;;;10.68;77.07
66524;BME280;53350;52.210;5.160;2023-02-19T11:19:52;102490.44;;;10.58;77.33
66524;BME280;53350;52.210;5.160;2023-02-19T11:22:28;102493.00;;;10.55;77.42
66524;BME280;53350;52.210;5.160;2023-02-19T11:24:59;102498.94;;;10.51;77.50
66524;BME280;53350;52.210;5.160;2023-02-19T11:27:27;102489.50;;;10.52;77.58
66524;BME280;53350;52.210;5.160;2023-02-19T11:30:21;102487.75;;;10.49;77.63
66524;BME280;53350;52.210;5.160;2023-02-19T11:32:42;102499.72;;;10.46;77.68
66524;BME280;53350;52.210;5.160;2023-02-19T11:35:17;102506.56;;;10.43;77.68
66524;BME280;53350;52.210;5.160;2023-02-19T11:37:53;102507.34;;;10.39;77.68
66524;BME280;53350;52.210;5.160;2023-02-19T11:40:23;102506.53;;;10.42;77.71
66524;BME280;53350;52.210;5.160;2023-02-19T11:42:57;102517.75;;;10.46;77.39
66524;BME280;53350;52.210;5.160;2023-02-19T11:45:34;102495.25;;;10.34;77.30
66524;BME280;53350;52.210;5.160;2023-02-19T11:48:26;102496.88;;;10.30;77.81
66524;BME280;53350;52.210;5.160;2023-02-19T11:51:03;102495.19;;;10.32;77.88
66524;BME280;53350;52.210;5.160;2023-02-19T11:53:41;102502.00;;;10.29;77.74
66524;BME280;53350;52.210;5.160;2023-02-19T11:56:13;102498.41;;;10.19;77.85
66524;BME280;53350;52.210;5.160;2023-02-19T11:58:55;102500.13;;;10.17;77.73
66524;BME280;53350;52.210;5.160;2023-02-19T12:01:35;102500.91;;;10.13;77.94
66524;BME280;53350;52.210;5.160;2023-02-19T12:04:24;102506.00;;;10.09;78.15
66524;BME280;53350;52.210;5.160;2023-02-19T12:07:01;102504.22;;;10.05;78.14
66524;BME280;53350;52.210;5.160;2023-02-19T12:09:47;102498.03;;;9.96;78.41
66524;BME280;53350;52.210;5.160;2023-02-19T12:12:27;102509.25;;;9.99;78.30
66524;BME280;53350;52.210;5.160;2023-02-19T12:15:08;102508.38;;;9.99;78.54
66524;BME280;53350;52.210;5.160;2023-02-19T12:17:58;102520.50;;;10.04;78.66
66524;BME280;53350;52.210;5.160;2023-02-19T12:20:32;102521.31;;;10.02;78.38
66524;BME280;53350;52.210;5.160;2023-02-19T12:23:20;102518.59;;;9.92;78.63
66524;BME280;53350;52.210;5.160;2023-02-19T12:25:56;102526.28;;;9.91;78.13
66524;BME280;53350;52.210;5.160;2023-02-19T12:28:51;102526.03;;;9.79;78.54
66524;BME280;53350;52.210;5.160;2023-02-19T12:31:43;102520.69;;;9.66;78.13
66524;BME280;53350;52.210;5.160;2023-02-19T12:34:23;102522.44;;;9.69;78.40
66524;BME280;53350;52.210;5.160;2023-02-19T12:37:04;102524.91;;;9.64;78.45
66524;BME280;53350;52.210;5.160;2023-02-19T12:39:44;102526.66;;;9.65;78.27
66524;BME280;53350;52.210;5.160;2023-02-19T12:42:36;102531.81;;;9.65;78.38
66524;BME280;53350;52.210;5.160;2023-02-19T12:45:09;102536.13;;;9.66;78.30
66524;BME280;53350;52.210;5.160;2023-02-19T12:47:43;102540.31;;;9.61;78.53
66524;BME280;53350;52.210;5.160;2023-02-19T12:50:17;102536.84;;;9.59;78.36
66524;BME280;53350;52.210;5.160;2023-02-19T12:52:49;102548.22;;;9.70;78.16
66524;BME280;53350;52.210;5.160;2023-02-19T12:55:21;102550.88;;;9.75;77.77
66524;BME280;53350;52.210;5.160;2023-02-19T12:57:50;102567.22;;;9.79;77.50
66524;BME280;53350;52.210;5.160;2023-02-19T13:00:28;102562.06;;;9.79;77.35
66524;BME280;53350;52.210;5.160;2023-02-19T13:02:59;102557.00;;;9.83;77.04
66524;BME280;53350;52.210;5.160;2023-02-19T13:05:37;102567.41;;;9.88;76.85
66524;BME280;53350;52.210;5.160;2023-02-19T13:08:11;102571.03;;;9.99;76.30